createdAt,value
2022-08-31T00:02:40.739Z,102404.72
2022-08-31T00:05:08.137Z,102406.88
2022-08-31T00:07:35.120Z,102406.59
2022-08-31T00:10:11.615Z,102406.06
2022-08-31T00:12:37.965Z,102403.34
2022-08-31T00:15:05.548Z,102399.31
2022-08-31T00:17:31.928Z,102397.13
2022-08-31T00:19:58.320Z,102400.34
2022-08-31T00:22:24.676Z,102394.66
2022-08-31T00:24:51.066Z,102396.28
2022-08-31T00:27:17.500Z,102399.22
2022-08-31T00:29:43.873Z,102395.41
2022-08-31T00:32:10.284Z,102399.75
2022-08-31T00:34:36.672Z,102391.88
2022-08-31T00:37:04.317Z,102390.28
2022-08-31T00:39:31.748Z,102395.66
2022-08-31T00:41:58.411Z,102405.09
2022-08-31T00:44:24.835Z,102400.78
2022-08-31T00:46:51.233Z,102400.78
2022-08-31T00:49:26.614Z,102393.97
2022-08-31T00:52:00.992Z,102396.41
2022-08-31T00:54:32.397Z,102396.38
2022-08-31T00:56:59.648Z,102391.22
2022-08-31T00:59:27.629Z,102401.47
2022-08-31T01:01:54.534Z,102399.06
2022-08-31T01:04:21.892Z,102404.97
2022-08-31T01:06:49.764Z,102396.84
2022-08-31T01:09:17.227Z,102402.50
2022-08-31T01:11:43.718Z,102407.03
2022-08-31T01:14:11.779Z,102398.66
2022-08-31T01:16:42.612Z,102399.16
2022-08-31T01:19:22.323Z,102391.59
2022-08-31T01:22:07.532Z,102398.59
2022-08-31T01:24:34.458Z,102401.59
2022-08-31T01:27:04.576Z,102400.94
2022-08-31T01:29:35.395Z,102400.66
2022-08-31T01:32:02.224Z,102400.09
2022-08-31T01:34:28.645Z,102396.31
2022-08-31T01:36:55.548Z,102391.91
2022-08-31T01:39:21.940Z,102400.84
2022-08-31T01:41:48.291Z,102395.41
2022-08-31T01:44:18.652Z,102395.34
2022-08-31T01:46:46.348Z,102392.91
2022-08-31T01:49:15.275Z,102407.75
2022-08-31T01:51:42.188Z,102402.03
2022-08-31T01:54:08.756Z,102404.19
2022-08-31T01:56:39.191Z,102410.09
2022-08-31T01:59:08.978Z,102404.94
2022-08-31T02:01:40.373Z,102407.31
2022-08-31T02:04:09.516Z,102404.34
2022-08-31T02:06:36.808Z,102397.81
2022-08-31T02:09:06.232Z,102399.16
2022-08-31T02:11:32.665Z,102399.66
2022-08-31T02:13:59.046Z,102400.72
2022-08-31T02:16:25.491Z,102397.44
2022-08-31T02:18:52.267Z,102399.34
2022-08-31T02:21:18.933Z,102395.84
2022-08-31T02:23:45.337Z,102403.38
2022-08-31T02:26:11.834Z,102397.41
2022-08-31T02:28:38.245Z,102404.13
2022-08-31T02:31:04.807Z,102406.28
2022-08-31T02:33:31.438Z,102404.88
2022-08-31T02:35:58.391Z,102404.84
2022-08-31T02:38:25.176Z,102405.91
2022-08-31T02:40:53.672Z,102402.91
2022-08-31T02:43:24.981Z,102405.84
2022-08-31T02:45:53.464Z,102409.06
2022-08-31T02:48:21.221Z,102414.13
2022-08-31T02:50:50.232Z,102415.44
2022-08-31T02:53:20.076Z,102412.19
2022-08-31T02:55:46.503Z,102411.63
2022-08-31T02:58:13.829Z,102410.81
2022-08-31T03:00:43.811Z,102406.19
2022-08-31T03:03:10.269Z,102407.47
2022-08-31T03:05:36.641Z,102402.84
2022-08-31T03:08:03.228Z,102406.03
2022-08-31T03:10:29.608Z,102395.53
2022-08-31T03:12:56.004Z,102400.34
2022-08-31T03:15:23.935Z,102402.47
2022-08-31T03:17:50.536Z,102405.16
2022-08-31T03:20:20.621Z,102411.88
2022-08-31T03:22:47.176Z,102413.75
2022-08-31T03:25:16.252Z,102414.22
2022-08-31T03:27:42.652Z,102412.59
2022-08-31T03:30:12.279Z,102417.41
2022-08-31T03:32:39.246Z,102423.06
2022-08-31T03:35:06.901Z,102410.66
2022-08-31T03:37:33.856Z,102417.69
2022-08-31T03:40:00.584Z,102414.41
2022-08-31T03:42:27.622Z,102413.34
2022-08-31T03:44:54.844Z,102415.47
2022-08-31T03:47:21.268Z,102409.78
2022-08-31T03:49:50.141Z,102413.22
2022-08-31T03:52:16.625Z,102414.50
2022-08-31T03:54:43.668Z,102409.06
2022-08-31T03:57:11.044Z,102416.81
2022-08-31T03:59:37.394Z,102418.97
2022-08-31T04:02:03.912Z,102417.81
2022-08-31T04:04:30.298Z,102416.75
2022-08-31T04:06:56.789Z,102423.47
2022-08-31T04:09:23.159Z,102423.38
2022-08-31T04:11:52.022Z,102423.06
2022-08-31T04:14:18.529Z,102424.91
2022-08-31T04:16:44.967Z,102429.50
2022-08-31T04:19:15.797Z,102426.22
2022-08-31T04:21:44.279Z,102431.63
2022-08-31T04:24:11.860Z,102421.81
2022-08-31T04:26:40.472Z,102421.81
2022-08-31T04:29:12.823Z,102432.03
2022-08-31T04:31:39.904Z,102432.25
2022-08-31T04:34:06.423Z,102434.38
2022-08-31T04:36:33.200Z,102434.06
2022-08-31T04:39:01.850Z,102427.88
2022-08-31T04:41:30.058Z,102437.81
2022-08-31T04:43:59.188Z,102437.22
2022-08-31T04:46:27.740Z,102430.47
2022-08-31T04:48:54.328Z,102429.09
2022-08-31T04:51:25.864Z,102431.22
2022-08-31T04:53:52.901Z,102433.91
2022-08-31T04:56:22.807Z,102432.53
2022-08-31T04:58:52.424Z,102441.41
2022-08-31T05:01:22.061Z,102436.81
2022-08-31T05:03:53.145Z,102444.88
2022-08-31T05:06:22.877Z,102440.34
2022-08-31T05:08:54.688Z,102443.84
2022-08-31T05:11:24.961Z,102442.19
2022-08-31T05:13:52.947Z,102446.78
2022-08-31T05:16:19.935Z,102445.41
2022-08-31T05:18:48.507Z,102454.06
2022-08-31T05:21:26.953Z,102452.41
2022-08-31T05:23:57.431Z,102455.91
2022-08-31T05:26:30.206Z,102450.28
2022-08-31T05:28:58.738Z,102454.84
2022-08-31T05:31:26.641Z,102459.75
2022-08-31T05:33:53.032Z,102457.06
2022-08-31T05:36:19.403Z,102457.06
2022-08-31T05:38:45.784Z,102463.03
2022-08-31T05:41:12.555Z,102453.31
2022-08-31T05:43:40.371Z,102451.19
2022-08-31T05:46:10.477Z,102455.50
2022-08-31T05:48:38.040Z,102460.97
2022-08-31T05:51:07.241Z,102455.69
2022-08-31T05:53:34.922Z,102451.16
2022-08-31T05:56:06.643Z,102455.47
2022-08-31T05:58:34.129Z,102457.06
2022-08-31T06:01:01.368Z,102447.41
2022-08-31T06:03:28.660Z,102462.56
2022-08-31T06:05:55.300Z,102459.31
2022-08-31T06:08:27.121Z,102462.50
2022-08-31T06:10:56.163Z,102467.69
2022-08-31T06:13:23.872Z,102476.44
2022-08-31T06:15:50.235Z,102469.66
2022-08-31T06:18:16.606Z,102474.81
2022-08-31T06:20:42.981Z,102474.34
2022-08-31T06:23:09.496Z,102477.47
2022-08-31T06:25:36.619Z,102469.84
2022-08-31T06:28:07.224Z,102467.19
2022-08-31T06:30:52.938Z,102474.81
2022-08-31T06:33:21.541Z,102475.22
2022-08-31T06:35:48.109Z,102472.81
2022-08-31T06:38:14.455Z,102477.47
2022-08-31T06:40:40.840Z,102473.19
2022-08-31T06:43:07.787Z,102474.31
2022-08-31T06:45:34.182Z,102487.59
2022-08-31T06:48:00.788Z,102484.34
2022-08-31T06:50:27.507Z,102484.63
2022-08-31T06:52:55.561Z,102478.47
2022-08-31T06:55:23.027Z,102481.25
2022-08-31T06:57:49.391Z,102476.97
2022-08-31T07:00:15.821Z,102488.59
2022-08-31T07:02:42.225Z,102486.28
2022-08-31T07:05:11.498Z,102496.28
2022-08-31T07:07:41.473Z,102492.81
2022-08-31T07:10:10.407Z,102504.19
2022-08-31T07:12:36.855Z,102500.44
2022-08-31T07:15:03.527Z,102501.00
2022-08-31T07:17:31.980Z,102506.16
2022-08-31T07:19:58.333Z,102501.31
2022-08-31T07:22:24.701Z,102502.66
2022-08-31T07:24:51.104Z,102500.47
2022-08-31T07:27:18.270Z,102502.94
2022-08-31T07:29:44.744Z,102499.66
2022-08-31T07:32:13.501Z,102510.19
2022-08-31T07:34:40.728Z,102508.53
2022-08-31T07:37:26.109Z,102510.66
2022-08-31T07:40:11.435Z,102503.56
2022-08-31T07:42:44.319Z,102500.53
2022-08-31T07:45:22.990Z,102501.63
2022-08-31T07:47:51.544Z,102511.84
2022-08-31T07:50:19.268Z,102507.66
2022-08-31T07:52:52.942Z,102503.44
2022-08-31T07:55:21.434Z,102506.28
2022-08-31T07:57:48.949Z,102504.28
2022-08-31T08:00:20.926Z,102504.97
2022-08-31T08:02:52.813Z,102508.56
2022-08-31T08:05:26.978Z,102514.34
2022-08-31T08:07:55.980Z,102504.59
2022-08-31T08:10:24.106Z,102511.63
2022-08-31T08:12:57.054Z,102508.47
2022-08-31T08:15:27.027Z,102520.25
2022-08-31T08:17:53.390Z,102510.72
2022-08-31T08:20:25.724Z,102509.56
2022-08-31T08:23:13.535Z,102510.03
2022-08-31T08:25:41.550Z,102512.53
2022-08-31T08:28:29.015Z,102509.81
2022-08-31T08:31:01.281Z,102511.97
2022-08-31T08:33:30.005Z,102512.78
2022-08-31T08:36:02.981Z,102511.00
2022-08-31T08:38:31.030Z,102515.47
2022-08-31T08:41:04.536Z,102508.69
2022-08-31T08:43:38.260Z,102510.63
2022-08-31T08:46:31.307Z,102505.16
2022-08-31T08:48:57.691Z,102508.19
2022-08-31T08:51:27.802Z,102506.78
2022-08-31T08:54:03.266Z,102500.91
2022-08-31T08:56:33.902Z,102501.13
2022-08-31T08:59:00.827Z,102505.00
2022-08-31T09:01:29.162Z,102505.16
2022-08-31T09:04:15.431Z,102502.34
2022-08-31T09:07:02.117Z,102501.97
2022-08-31T09:09:34.156Z,102495.63
2022-08-31T09:12:19.033Z,102484.00
2022-08-31T09:15:03.689Z,102490.75
2022-08-31T09:17:45.344Z,102494.97
2022-08-31T09:20:13.179Z,102492.91
2022-08-31T09:22:50.973Z,102499.38
2022-08-31T09:25:20.182Z,102494.56
2022-08-31T09:27:58.708Z,102499.25
2022-08-31T09:30:52.445Z,102494.28
2022-08-31T09:33:46.483Z,102495.56
2022-08-31T09:36:16.947Z,102495.44
2022-08-31T09:38:46.846Z,102491.06
2022-08-31T09:41:30.751Z,102489.47
2022-08-31T09:44:18.020Z,102495.25
2022-08-31T09:46:56.435Z,102496.69
2022-08-31T09:49:28.141Z,102489.56
2022-08-31T09:52:51.277Z,102486.38
2022-08-31T09:55:24.817Z,102497.69
2022-08-31T09:58:07.788Z,102492.56
2022-08-31T10:00:36.517Z,102492.81
2022-08-31T10:03:08.820Z,102488.84
2022-08-31T10:05:40.706Z,102485.91
2022-08-31T10:08:19.505Z,102489.88
2022-08-31T10:10:49.388Z,102484.66
2022-08-31T10:13:22.496Z,102483.06
2022-08-31T10:16:00.384Z,102482.78
2022-08-31T10:18:38.008Z,102481.75
2022-08-31T10:21:09.373Z,102487.56
2022-08-31T10:23:54.185Z,102481.59
2022-08-31T10:26:36.565Z,102473.69
2022-08-31T10:29:31.288Z,102479.19
2022-08-31T10:32:02.697Z,102472.25
2022-08-31T10:34:54.412Z,102478.34
2022-08-31T10:37:31.413Z,102472.03
2022-08-31T10:40:06.824Z,102471.25
2022-08-31T10:42:41.323Z,102472.91
2022-08-31T10:45:23.926Z,102464.72
2022-08-31T10:47:53.791Z,102460.41
2022-08-31T10:50:30.356Z,102461.00
2022-08-31T10:53:10.959Z,102462.94
2022-08-31T10:55:51.152Z,102458.00
2022-08-31T10:58:43.455Z,102466.81
2022-08-31T11:01:18.388Z,102470.63
2022-08-31T11:04:12.497Z,102468.19
2022-08-31T11:06:56.174Z,102467.47
2022-08-31T11:09:30.981Z,102470.03
2022-08-31T11:12:07.204Z,102471.50
2022-08-31T11:14:45.214Z,102470.84
2022-08-31T11:17:11.939Z,102466.53
2022-08-31T11:20:17.326Z,102461.94
2022-08-31T11:23:16.928Z,102467.56
2022-08-31T11:26:16.306Z,102462.13
2022-08-31T11:29:01.516Z,102463.47
2022-08-31T11:31:33.370Z,102453.78
2022-08-31T11:34:16.312Z,102464.78
2022-08-31T11:36:52.349Z,102449.06
2022-08-31T11:39:37.809Z,102458.81
2022-08-31T11:42:37.808Z,102455.53
2022-08-31T11:45:07.802Z,102447.16
2022-08-31T11:47:38.679Z,102445.53
2022-08-31T11:50:25.054Z,102449.13
2022-08-31T11:52:53.602Z,102439.22
2022-08-31T11:55:22.063Z,102442.84
2022-08-31T11:58:06.330Z,102434.97
2022-08-31T12:01:09.215Z,102442.94
2022-08-31T12:03:44.581Z,102436.00
2022-08-31T12:06:29.358Z,102430.94
2022-08-31T12:09:01.519Z,102430.69
2022-08-31T12:11:52.439Z,102431.34
2022-08-31T12:14:40.155Z,102428.91
2022-08-31T12:17:25.247Z,102412.38
2022-08-31T12:20:09.014Z,102417.03
2022-08-31T12:23:30.079Z,102419.50
2022-08-31T12:26:11.467Z,102408.03
2022-08-31T12:29:08.883Z,102411.53
2022-08-31T12:31:39.333Z,102410.72
2022-08-31T12:34:19.322Z,102411.28
2022-08-31T12:36:50.036Z,102406.63
2022-08-31T12:39:23.018Z,102397.41
2022-08-31T12:41:53.996Z,102389.31
2022-08-31T12:44:22.868Z,102394.56
2022-08-31T12:47:24.057Z,102392.09
2022-08-31T12:50:20.186Z,102388.00
2022-08-31T12:53:03.840Z,102388.34
2022-08-31T12:55:39.016Z,102383.41
2022-08-31T12:58:28.056Z,102377.56
2022-08-31T13:01:09.369Z,102370.06
2022-08-31T13:03:39.515Z,102380.78
2022-08-31T13:06:13.546Z,102377.84
2022-08-31T13:08:47.121Z,102376.13
2022-08-31T13:11:14.891Z,102376.91
2022-08-31T13:13:41.344Z,102368.00
2022-08-31T13:16:08.411Z,102366.09
2022-08-31T13:18:35.944Z,102358.25
2022-08-31T13:21:06.598Z,102356.97
2022-08-31T13:23:41.764Z,102358.47
2022-08-31T13:26:25.948Z,102357.75
2022-08-31T13:28:58.997Z,102355.06
2022-08-31T13:31:31.627Z,102350.91
2022-08-31T13:34:01.041Z,102346.97
2022-08-31T13:36:32.459Z,102332.41
2022-08-31T13:39:03.540Z,102330.88
2022-08-31T13:41:37.948Z,102333.94
2022-08-31T13:44:09.987Z,102336.59
2022-08-31T13:46:44.472Z,102331.59
2022-08-31T13:49:29.565Z,102332.28
2022-08-31T13:51:56.197Z,102326.22
2022-08-31T13:54:31.331Z,102324.28
2022-08-31T13:57:25.696Z,102332.38
2022-08-31T13:59:52.597Z,102325.34
2022-08-31T14:02:19.549Z,102326.78
2022-08-31T14:05:00.339Z,102327.59
2022-08-31T14:07:32.307Z,102324.97
2022-08-31T14:10:00.531Z,102327.22
2022-08-31T14:12:46.005Z,102326.94
2022-08-31T14:15:17.408Z,102330.25
2022-08-31T14:21:25.076Z,102323.63
2022-08-31T14:24:02.820Z,102320.44
2022-08-31T14:26:35.075Z,102312.28
2022-08-31T14:29:10.852Z,102307.22
2022-08-31T14:31:51.948Z,102314.97
2022-08-31T14:34:22.052Z,102314.50
2022-08-31T14:37:16.356Z,102311.69
2022-08-31T14:39:47.826Z,102318.00
2022-08-31T14:42:26.429Z,102312.09
2022-08-31T14:45:02.905Z,102298.81
2022-08-31T14:47:32.833Z,102297.47
2022-08-31T14:50:05.708Z,102304.66
2022-08-31T14:52:34.537Z,102298.44
2022-08-31T14:55:02.583Z,102299.63
2022-08-31T14:57:32.736Z,102299.09
2022-08-31T15:00:02.090Z,102303.81
2022-08-31T15:02:33.953Z,102297.06
2022-08-31T15:05:04.560Z,102301.47
2022-08-31T15:07:33.268Z,102295.28
2022-08-31T15:09:59.644Z,102299.19
2022-08-31T15:12:26.505Z,102287.56
2022-08-31T15:14:58.112Z,102290.81
2022-08-31T15:17:24.888Z,102297.81
2022-08-31T15:19:52.997Z,102280.38
2022-08-31T15:22:19.458Z,102294.81
2022-08-31T15:24:45.837Z,102287.47
2022-08-31T15:27:15.341Z,102279.94
2022-08-31T15:29:45.419Z,102292.31
2022-08-31T15:32:16.300Z,102283.09
2022-08-31T15:34:49.875Z,102280.50
2022-08-31T15:37:16.627Z,102286.59
2022-08-31T15:39:48.788Z,102286.84
2022-08-31T15:42:20.444Z,102285.53
2022-08-31T15:44:56.932Z,102287.31
2022-08-31T15:47:45.127Z,102270.41
2022-08-31T15:50:11.677Z,102284.13
2022-08-31T15:52:43.727Z,102276.06
2022-08-31T15:55:16.066Z,102281.78
2022-08-31T15:57:43.472Z,102273.59
2022-08-31T16:00:13.999Z,102274.22
2022-08-31T16:02:41.789Z,102273.53
2022-08-31T16:05:09.752Z,102274.34
2022-08-31T16:07:36.621Z,102283.47
2022-08-31T16:10:13.824Z,102282.03
2022-08-31T16:12:43.509Z,102276.72
2022-08-31T16:15:11.402Z,102270.53
2022-08-31T16:17:40.372Z,102279.66
2022-08-31T16:20:12.686Z,102275.69
2022-08-31T16:22:39.845Z,102264.66
2022-08-31T16:25:11.415Z,102262.78
2022-08-31T16:27:39.679Z,102262.91
2022-08-31T16:30:07.624Z,102263.22
2022-08-31T16:32:33.964Z,102259.31
2022-08-31T16:35:00.404Z,102263.88
2022-08-31T16:37:27.656Z,102261.69
2022-08-31T16:39:54.079Z,102252.84
2022-08-31T16:42:20.429Z,102254.13
2022-08-31T16:44:47.948Z,102249.75
2022-08-31T16:47:16.816Z,102258.31
2022-08-31T16:49:43.947Z,102255.59
2022-08-31T16:52:15.036Z,102264.44
2022-08-31T16:54:44.290Z,102266.47
2022-08-31T16:57:13.387Z,102271.50
2022-08-31T16:59:43.640Z,102271.75
2022-08-31T17:02:12.065Z,102269.81
2022-08-31T17:04:55.788Z,102267.41
2022-08-31T17:07:24.425Z,102274.25
2022-08-31T17:09:55.280Z,102274.25
2022-08-31T17:12:23.094Z,102272.63
2022-08-31T17:14:52.088Z,102269.44
2022-08-31T17:17:24.970Z,102272.13
2022-08-31T17:19:52.996Z,102267.28
2022-08-31T17:22:25.724Z,102272.72
2022-08-31T17:24:57.607Z,102279.72
2022-08-31T17:27:25.764Z,102274.25
2022-08-31T17:29:54.003Z,102275.81
2022-08-31T17:32:25.665Z,102275.47
2022-08-31T17:34:54.175Z,102282.69
2022-08-31T17:37:25.038Z,102283.16
2022-08-31T17:39:52.796Z,102281.41
2022-08-31T17:42:25.463Z,102276.03
2022-08-31T17:44:52.412Z,102289.00
2022-08-31T17:47:21.119Z,102291.84
2022-08-31T17:49:47.575Z,102289.44
2022-08-31T17:52:14.411Z,102290.81
2022-08-31T17:54:42.970Z,102295.63
2022-08-31T17:57:12.735Z,102290.81
2022-08-31T17:59:42.787Z,102292.47
2022-08-31T18:02:11.877Z,102291.69
2022-08-31T18:04:39.686Z,102290.72
2022-08-31T18:07:10.070Z,102290.72
2022-08-31T18:09:40.896Z,102293.25
2022-08-31T18:12:07.972Z,102299.66
2022-08-31T18:14:37.921Z,102296.28
2022-08-31T18:17:08.420Z,102310.28
2022-08-31T18:19:35.624Z,102308.28
2022-08-31T18:22:02.383Z,102311.94
2022-08-31T18:24:31.244Z,102310.78
2022-08-31T18:26:58.768Z,102315.34
2022-08-31T18:29:26.617Z,102312.41
2022-08-31T18:31:53.963Z,102307.84
2022-08-31T18:34:23.857Z,102323.88
2022-08-31T18:36:53.158Z,102324.94
2022-08-31T18:39:41.072Z,102327.41
2022-08-31T18:42:27.540Z,102325.44
2022-08-31T18:45:12.367Z,102328.91
2022-08-31T18:47:38.737Z,102333.88
2022-08-31T18:50:05.751Z,102332.16
2022-08-31T18:52:32.122Z,102334.63
2022-08-31T18:54:58.798Z,102341.28
2022-08-31T18:57:27.883Z,102343.31
2022-08-31T18:59:54.643Z,102337.78
2022-08-31T19:02:22.698Z,102341.34
2022-08-31T19:04:51.029Z,102347.00
2022-08-31T19:07:18.956Z,102341.25
2022-08-31T19:09:45.758Z,102346.59
2022-08-31T19:12:19.290Z,102349.81
2022-08-31T19:14:50.940Z,102347.75
2022-08-31T19:17:20.874Z,102353.91
2022-08-31T19:19:48.496Z,102354.81
2022-08-31T19:22:16.634Z,102354.38
2022-08-31T19:24:42.962Z,102364.88
2022-08-31T19:27:10.223Z,102368.88
2022-08-31T19:29:37.589Z,102365.44
2022-08-31T19:32:05.897Z,102370.44
2022-08-31T19:34:35.211Z,102364.31
2022-08-31T19:37:01.989Z,102365.81
2022-08-31T19:39:37.027Z,102355.88
2022-08-31T19:42:07.465Z,102370.13
2022-08-31T19:47:25.288Z,102369.31
2022-08-31T19:49:52.901Z,102371.00
2022-08-31T19:52:20.230Z,102369.16
2022-08-31T19:54:48.355Z,102375.47
2022-08-31T19:57:16.241Z,102377.00
2022-08-31T19:59:42.664Z,102384.47
2022-08-31T20:02:09.169Z,102388.06
2022-08-31T20:04:35.914Z,102395.75
2022-08-31T20:07:06.101Z,102391.25
2022-08-31T20:09:33.951Z,102388.88
2022-08-31T20:12:01.904Z,102392.72
2022-08-31T20:14:28.446Z,102391.97
2022-08-31T20:16:54.935Z,102395.56
2022-08-31T20:19:24.715Z,102389.94
2022-08-31T20:21:54.185Z,102392.19
2022-08-31T20:24:24.868Z,102398.22
2022-08-31T20:26:55.325Z,102397.69
2022-08-31T20:29:22.440Z,102395.06
2022-08-31T20:31:51.696Z,102402.97
2022-08-31T20:34:21.983Z,102404.59
2022-08-31T20:36:50.804Z,102395.94
2022-08-31T20:39:18.904Z,102395.44
2022-08-31T20:41:49.041Z,102402.56
2022-08-31T20:44:27.041Z,102398.47
2022-08-31T20:47:15.814Z,102404.50
2022-08-31T20:49:53.501Z,102399.09
2022-08-31T20:52:21.492Z,102396.69
2022-08-31T20:54:51.225Z,102402.94
2022-08-31T20:57:21.683Z,102403.78
2022-08-31T20:59:51.277Z,102405.19
2022-08-31T21:02:19.865Z,102402.75
2022-08-31T21:04:47.845Z,102395.97
2022-08-31T21:07:16.503Z,102397.91
2022-08-31T21:09:44.628Z,102397.91
2022-08-31T21:12:14.229Z,102399.59
2022-08-31T21:14:45.532Z,102400.97
2022-08-31T21:17:14.332Z,102405.06
2022-08-31T21:19:41.758Z,102406.16
2022-08-31T21:22:10.872Z,102405.06
2022-08-31T21:24:39.843Z,102403.19
2022-08-31T21:27:09.620Z,102402.66
2022-08-31T21:29:36.864Z,102409.16
2022-08-31T21:32:05.402Z,102398.34
2022-08-31T21:34:32.232Z,102399.19
2022-08-31T21:36:58.767Z,102406.50
2022-08-31T21:39:25.275Z,102401.91
2022-08-31T21:41:51.910Z,102413.81
2022-08-31T21:44:20.831Z,102413.81
2022-08-31T21:46:50.735Z,102402.72
2022-08-31T21:49:18.003Z,102405.97
2022-08-31T21:51:49.992Z,102410.03
2022-08-31T21:54:19.640Z,102407.06
2022-08-31T21:56:50.032Z,102403.28
2022-08-31T21:59:19.192Z,102402.19
2022-08-31T22:01:46.231Z,102400.59
2022-08-31T22:04:15.887Z,102402.22
2022-08-31T22:06:43.095Z,102403.28
2022-08-31T22:09:13.102Z,102402.22
2022-08-31T22:11:45.501Z,102403.56
2022-08-31T22:14:16.350Z,102406.00
2022-08-31T22:16:46.567Z,102404.66
2022-08-31T22:19:15.775Z,102410.88
2022-08-31T22:21:45.033Z,102407.34
2022-08-31T22:24:26.684Z,102404.91
2022-08-31T22:26:55.284Z,102401.38
2022-08-31T22:29:24.365Z,102404.91
2022-08-31T22:31:53.232Z,102403.00
2022-08-31T22:34:21.023Z,102408.69
2022-08-31T22:36:52.251Z,102415.72
2022-08-31T22:39:30.052Z,102413.28
2022-08-31T22:41:58.214Z,102414.34
2022-08-31T22:44:26.973Z,102418.44
2022-08-31T22:46:56.107Z,102422.22
2022-08-31T22:49:22.736Z,102414.63
2022-08-31T22:51:49.149Z,102416.22
2022-08-31T22:54:18.276Z,102419.47
2022-08-31T22:56:45.946Z,102413.19
2022-08-31T22:59:16.101Z,102412.94
2022-08-31T23:01:49.707Z,102410.19
2022-08-31T23:04:19.860Z,102412.34
2022-08-31T23:06:48.833Z,102411.00
2022-08-31T23:09:16.108Z,102409.38
2022-08-31T23:11:42.577Z,102403.13
2022-08-31T23:14:10.054Z,102402.03
2022-08-31T23:16:42.366Z,102405.81
2022-08-31T23:19:14.283Z,102400.09
2022-08-31T23:21:47.639Z,102400.09
2022-08-31T23:24:34.141Z,102399.53
2022-08-31T23:27:04.337Z,102391.69
2022-08-31T23:29:53.011Z,102391.66
2022-08-31T23:32:23.279Z,102384.34
2022-08-31T23:34:52.376Z,102382.72
2022-08-31T23:37:23.215Z,102381.88
2022-08-31T23:39:53.860Z,102382.66
2022-08-31T23:42:21.627Z,102383.44
2022-08-31T23:44:48.464Z,102377.22
2022-08-31T23:47:23.484Z,102374.47
2022-08-31T23:49:53.247Z,102366.38
2022-08-31T23:52:23.753Z,102369.56
2022-08-31T23:54:52.760Z,102370.38
2022-08-31T23:57:32.316Z,102370.06
